Time,TemperatureF,DewpointF,PressureIn,WindDirection,WindDirectionDegrees,WindSpeedMPH,WindSpeedGustMPH,Humidity,HourlyPrecipIn,Conditions,Clouds,dailyrainin,SolarRadiationWatts/m^2,SoftwareType,DateUTC
2013-03-16 00:02:00,46.0,45.0,-100.00,SSW,192,2.0,5.0,98,0.00,,,0.21,0.000000,,2013-03-16 07:02:00,
2013-03-16 00:12:00,46.0,45.0,-100.00,SSW,192,2.0,5.0,98,0.00,,,0.21,0.000000,,2013-03-16 07:12:00,
2013-03-16 00:22:00,46.0,45.0,-100.00,SSW,192,2.0,5.0,98,0.00,,,0.21,0.000000,,2013-03-16 07:22:00,
2013-03-16 00:32:00,46.0,45.0,-100.00,SSW,192,2.0,5.0,98,0.00,,,0.21,0.000000,,2013-03-16 07:32:00,
2013-03-16 00:52:00,46.0,45.0,-100.00,SW,227,0.0,3.0,98,0.00,,,0.21,0.000000,,2013-03-16 07:52:00,
2013-03-16 01:02:00,46.0,45.0,-100.00,SW,227,0.0,3.0,98,0.00,,,0.21,0.000000,,2013-03-16 08:02:00,
2013-03-16 01:12:00,46.0,45.0,-100.00,SW,227,0.0,3.0,98,0.00,,,0.21,0.000000,,2013-03-16 08:12:00,
2013-03-16 01:22:00,46.0,45.0,-100.00,SW,227,0.0,3.0,98,0.00,,,0.21,0.000000,,2013-03-16 08:22:00,
2013-03-16 01:32:00,46.0,45.0,-100.00,SW,227,0.0,3.0,98,0.00,,,0.21,0.000000,,2013-03-16 08:32:00,
2013-03-16 01:52:00,45.0,44.0,-100.00,South,184,1.0,5.0,98,0.01,,,0.21,0.000000,,2013-03-16 08:52:00,
2013-03-16 02:01:00,45.0,44.0,-100.00,South,184,1.0,5.0,98,0.01,,,0.21,0.000000,,2013-03-16 09:01:00,
2013-03-16 02:12:00,45.0,44.0,-100.00,South,184,1.0,5.0,98,0.01,,,0.21,0.000000,,2013-03-16 09:12:00,
2013-03-16 02:22:00,45.0,44.0,-100.00,South,184,1.0,5.0,98,0.01,,,0.21,0.000000,,2013-03-16 09:22:00,
2013-03-16 02:32:00,45.0,44.0,-100.00,South,184,1.0,5.0,98,0.01,,,0.21,0.000000,,2013-03-16 09:32:00,
2013-03-16 02:53:00,45.0,44.0,-100.00,SSE,156,0.0,6.0,97,0.01,,,0.22,0.000000,,2013-03-16 09:53:00,
2013-03-16 03:03:00,45.0,44.0,-100.00,SSE,156,0.0,6.0,97,0.01,,,0.22,0.000000,,2013-03-16 10:03:00,
2013-03-16 03:12:00,45.0,44.0,-100.00,SSE,156,0.0,6.0,97,0.01,,,0.22,0.000000,,2013-03-16 10:12:00,
2013-03-16 03:22:00,45.0,44.0,-100.00,SSE,156,0.0,6.0,97,0.01,,,0.22,0.000000,,2013-03-16 10:22:00,
2013-03-16 03:32:00,45.0,44.0,-100.00,SSE,156,0.0,6.0,97,0.01,,,0.22,0.000000,,2013-03-16 10:32:00,
2013-03-16 03:53:00,45.0,44.0,-100.00,SSW,193,3.0,6.0,96,0.01,,,0.23,0.000000,,2013-03-16 10:53:00,
2013-03-16 04:03:00,45.0,44.0,-100.00,SSW,193,3.0,6.0,96,0.01,,,0.23,0.000000,,2013-03-16 11:03:00,
2013-03-16 04:12:00,45.0,44.0,-100.00,SSW,193,3.0,6.0,96,0.01,,,0.23,0.000000,,2013-03-16 11:12:00,
2013-03-16 04:22:00,45.0,44.0,-100.00,SSW,193,3.0,6.0,96,0.01,,,0.23,0.000000,,2013-03-16 11:22:00,
2013-03-16 04:32:00,45.0,44.0,-100.00,SSW,193,3.0,6.0,96,0.01,,,0.23,0.000000,,2013-03-16 11:32:00,
2013-03-16 04:52:00,45.0,43.0,-100.00,SSE,164,2.0,7.0,94,0.00,,,0.23,0.000000,,2013-03-16 11:52:00,
2013-03-16 05:02:00,45.0,43.0,-100.00,SSE,164,2.0,7.0,94,0.00,,,0.23,0.000000,,2013-03-16 12:02:00,
2013-03-16 05:12:00,45.0,43.0,-100.00,SSE,164,2.0,7.0,94,0.00,,,0.23,0.000000,,2013-03-16 12:12:00,
2013-03-16 05:22:00,45.0,43.0,-100.00,SSE,164,2.0,7.0,94,0.00,,,0.23,0.000000,,2013-03-16 12:22:00,
2013-03-16 05:32:00,45.0,43.0,-100.00,SSE,164,2.0,7.0,94,0.00,,,0.23,0.000000,,2013-03-16 12:32:00,
2013-03-16 05:52:00,45.0,44.0,-100.00,South,171,1.0,7.0,96,0.00,,,0.23,0.000000,,2013-03-16 12:52:00,
2013-03-16 06:02:00,45.0,44.0,-100.00,South,171,1.0,7.0,96,0.00,,,0.23,0.000000,,2013-03-16 13:02:00,
2013-03-16 06:12:00,45.0,44.0,-100.00,South,171,1.0,7.0,96,0.00,,,0.23,0.000000,,2013-03-16 13:12:00,
2013-03-16 06:22:00,45.0,44.0,-100.00,South,171,1.0,7.0,96,0.00,,,0.23,0.000000,,2013-03-16 13:22:00,
2013-03-16 06:31:00,45.0,44.0,-100.00,South,171,1.0,7.0,96,0.00,,,0.23,0.000000,,2013-03-16 13:31:00,
2013-03-16 06:53:00,44.0,43.0,-100.00,South,169,1.0,5.0,96,0.03,,,0.26,0.000000,,2013-03-16 13:53:00,
2013-03-16 07:02:00,44.0,43.0,-100.00,South,169,1.0,5.0,96,0.03,,,0.26,0.000000,,2013-03-16 14:02:00,
2013-03-16 07:12:00,44.0,43.0,-100.00,South,169,1.0,5.0,96,0.03,,,0.26,0.000000,,2013-03-16 14:12:00,
2013-03-16 07:22:00,44.0,43.0,-100.00,South,169,1.0,5.0,96,0.03,,,0.26,0.000000,,2013-03-16 14:22:00,
2013-03-16 07:31:00,44.0,43.0,-100.00,South,169,1.0,5.0,96,0.03,,,0.26,0.000000,,2013-03-16 14:31:00,
2013-03-16 07:52:00,45.0,44.0,-100.00,South,188,4.0,9.0,96,0.00,,,0.26,0.000000,,2013-03-16 14:52:00,
2013-03-16 08:02:00,45.0,44.0,-100.00,South,188,4.0,9.0,96,0.00,,,0.26,0.000000,,2013-03-16 15:02:00,
2013-03-16 08:12:00,45.0,44.0,-100.00,South,188,4.0,9.0,96,0.00,,,0.26,0.000000,,2013-03-16 15:12:00,
2013-03-16 08:22:00,45.0,44.0,-100.00,South,188,4.0,9.0,96,0.00,,,0.26,0.000000,,2013-03-16 15:22:00,
2013-03-16 08:32:00,45.0,44.0,-100.00,South,188,4.0,9.0,96,0.00,,,0.26,0.000000,,2013-03-16 15:32:00,
2013-03-16 08:33:00,44.0,43.0,-100.00,SW,216,0.0,12.0,97,0.03,,,-99.99,8.000000,,2013-03-16 15:33:00,
2013-03-16 08:53:00,44.0,43.0,-100.00,SW,216,0.0,12.0,97,0.03,,,-99.99,8.000000,,2013-03-16 15:53:00,
2013-03-16 09:02:00,44.0,43.0,-100.00,SW,216,0.0,12.0,97,0.03,,,-99.99,8.000000,,2013-03-16 16:02:00,
2013-03-16 09:12:00,44.0,43.0,-100.00,SW,216,0.0,12.0,97,0.03,,,-99.99,8.000000,,2013-03-16 16:12:00,
2013-03-16 09:22:00,44.0,43.0,-100.00,SW,216,0.0,12.0,97,0.03,,,-99.99,8.000000,,2013-03-16 16:22:00,
2013-03-16 09:53:00,44.0,43.0,-100.00,WSW,258,3.0,11.0,97,0.03,,,0.32,30.000000,,2013-03-16 16:53:00,
2013-03-16 10:02:00,44.0,43.0,-100.00,WSW,258,3.0,11.0,97,0.03,,,0.32,30.000000,,2013-03-16 17:02:00,
2013-03-16 10:12:00,44.0,43.0,-100.00,WSW,258,3.0,11.0,97,0.03,,,0.32,30.000000,,2013-03-16 17:12:00,
2013-03-16 10:22:00,44.0,43.0,-100.00,WSW,258,3.0,11.0,97,0.03,,,0.32,30.000000,,2013-03-16 17:22:00,
2013-03-16 10:32:00,44.0,43.0,-100.00,WSW,258,3.0,11.0,97,0.03,,,0.32,30.000000,,2013-03-16 17:32:00,
2013-03-16 10:53:00,44.0,43.0,-100.00,WSW,254,4.0,9.0,96,0.01,,,0.33,91.000000,,2013-03-16 17:53:00,
2013-03-16 11:02:00,44.0,43.0,-100.00,WSW,254,4.0,9.0,96,0.01,,,0.33,91.000000,,2013-03-16 18:02:00,
2013-03-16 11:13:00,44.0,43.0,-100.00,WSW,254,4.0,9.0,96,0.01,,,0.33,91.000000,,2013-03-16 18:13:00,
2013-03-16 11:22:00,44.0,43.0,-100.00,WSW,254,4.0,9.0,96,0.01,,,0.33,91.000000,,2013-03-16 18:22:00,
2013-03-16 11:32:00,44.0,43.0,-100.00,WSW,254,4.0,9.0,96,0.01,,,0.33,91.000000,,2013-03-16 18:32:00,
2013-03-16 11:53:00,42.0,40.0,-100.00,WSW,253,3.0,14.0,94,0.04,,,0.37,123.000000,,2013-03-16 18:53:00,
2013-03-16 12:02:00,42.0,40.0,-100.00,WSW,253,3.0,14.0,94,0.04,,,0.37,123.000000,,2013-03-16 19:02:00,
2013-03-16 12:12:00,42.0,40.0,-100.00,WSW,253,3.0,14.0,94,0.04,,,0.37,123.000000,,2013-03-16 19:12:00,
2013-03-16 12:22:00,42.0,40.0,-100.00,WSW,253,3.0,14.0,94,0.04,,,0.37,123.000000,,2013-03-16 19:22:00,
2013-03-16 12:32:00,42.0,40.0,-100.00,WSW,253,3.0,14.0,94,0.04,,,0.37,123.000000,,2013-03-16 19:32:00,
2013-03-16 12:52:00,42.0,40.0,-100.00,WSW,253,3.0,14.0,92,0.03,,,0.40,125.000000,,2013-03-16 19:52:00,
2013-03-16 13:02:00,42.0,40.0,-100.00,WSW,253,3.0,14.0,92,0.03,,,0.40,125.000000,,2013-03-16 20:02:00,
2013-03-16 13:12:00,42.0,40.0,-100.00,WSW,253,3.0,14.0,92,0.03,,,0.40,125.000000,,2013-03-16 20:12:00,
2013-03-16 13:21:00,42.0,40.0,-100.00,WSW,253,3.0,14.0,92,0.03,,,0.40,125.000000,,2013-03-16 20:21:00,
2013-03-16 13:31:00,42.0,40.0,-100.00,WSW,253,3.0,14.0,92,0.03,,,0.40,125.000000,,2013-03-16 20:31:00,
2013-03-16 13:52:00,40.0,38.0,-100.00,West,264,6.0,16.0,91,0.05,,,0.45,98.000000,,2013-03-16 20:52:00,
2013-03-16 14:02:00,40.0,38.0,-100.00,West,264,6.0,16.0,91,0.05,,,0.45,98.000000,,2013-03-16 21:02:00,
2013-03-16 14:12:00,40.0,38.0,-100.00,West,264,6.0,16.0,91,0.05,,,0.45,98.000000,,2013-03-16 21:12:00,
2013-03-16 14:22:00,40.0,38.0,-100.00,West,264,6.0,16.0,91,0.05,,,0.45,98.000000,,2013-03-16 21:22:00,
2013-03-16 14:32:00,40.0,38.0,-100.00,West,264,6.0,16.0,91,0.05,,,0.45,98.000000,,2013-03-16 21:32:00,
2013-03-16 14:53:00,39.0,37.0,-100.00,South,186,3.0,15.0,92,0.04,,,0.49,106.000000,,2013-03-16 21:53:00,
2013-03-16 15:03:00,39.0,37.0,-100.00,South,186,3.0,15.0,92,0.04,,,0.49,106.000000,,2013-03-16 22:03:00,
2013-03-16 15:12:00,39.0,37.0,-100.00,South,186,3.0,15.0,92,0.04,,,0.49,106.000000,,2013-03-16 22:12:00,
2013-03-16 15:22:00,39.0,37.0,-100.00,South,186,3.0,15.0,92,0.04,,,0.49,106.000000,,2013-03-16 22:22:00,
2013-03-16 15:32:00,39.0,37.0,-100.00,South,186,3.0,15.0,92,0.04,,,0.49,106.000000,,2013-03-16 22:32:00,
2013-03-16 15:52:00,41.0,39.0,-100.00,WSW,258,3.0,13.0,92,0.01,,,0.48,171.000000,,2013-03-16 22:52:00,
2013-03-16 16:02:00,41.0,39.0,-100.00,WSW,258,3.0,13.0,92,0.01,,,0.48,171.000000,,2013-03-16 23:02:00,
2013-03-16 16:12:00,41.0,39.0,-100.00,WSW,258,3.0,13.0,92,0.01,,,0.48,171.000000,,2013-03-16 23:12:00,
2013-03-16 16:22:00,41.0,39.0,-100.00,WSW,258,3.0,13.0,92,0.01,,,0.48,171.000000,,2013-03-16 23:22:00,
2013-03-16 16:32:00,41.0,39.0,-100.00,WSW,258,3.0,13.0,92,0.01,,,0.48,171.000000,,2013-03-16 23:32:00,
2013-03-16 16:52:00,43.0,38.0,-100.00,West,267,4.0,17.0,82,0.00,,,0.44,222.000000,,2013-03-16 23:52:00,
2013-03-16 17:01:00,43.0,38.0,-100.00,West,267,4.0,17.0,82,0.00,,,0.44,222.000000,,2013-03-17 00:01:00,
2013-03-16 17:12:00,43.0,38.0,-100.00,West,267,4.0,17.0,82,0.00,,,0.44,222.000000,,2013-03-17 00:12:00,
2013-03-16 17:22:00,43.0,38.0,-100.00,West,267,4.0,17.0,82,0.00,,,0.44,222.000000,,2013-03-17 00:22:00,
2013-03-16 17:32:00,43.0,38.0,-100.00,West,267,4.0,17.0,82,0.00,,,0.44,222.000000,,2013-03-17 00:32:00,
2013-03-16 17:52:00,41.0,37.0,-100.00,SW,235,3.0,14.0,86,0.01,,,0.45,131.000000,,2013-03-17 00:52:00,
2013-03-16 18:02:00,41.0,37.0,-100.00,SW,235,3.0,14.0,86,0.01,,,0.45,131.000000,,2013-03-17 01:02:00,
2013-03-16 18:12:00,41.0,37.0,-100.00,SW,235,3.0,14.0,86,0.01,,,0.45,131.000000,,2013-03-17 01:12:00,
2013-03-16 18:22:00,41.0,37.0,-100.00,SW,235,3.0,14.0,86,0.01,,,0.45,131.000000,,2013-03-17 01:22:00,
2013-03-16 18:32:00,41.0,37.0,-100.00,SW,235,3.0,14.0,86,0.01,,,0.45,131.000000,,2013-03-17 01:32:00,
2013-03-16 18:53:00,38.0,36.0,-100.00,SSW,208,1.0,10.0,93,0.06,,,0.44,25.000000,,2013-03-17 01:53:00,
2013-03-16 19:02:00,38.0,36.0,-100.00,SSW,208,1.0,10.0,93,0.06,,,0.44,25.000000,,2013-03-17 02:02:00,
2013-03-16 19:12:00,38.0,36.0,-100.00,SSW,208,1.0,10.0,93,0.06,,,0.44,25.000000,,2013-03-17 02:12:00,
2013-03-16 19:22:00,38.0,36.0,-100.00,SSW,208,1.0,10.0,93,0.06,,,0.44,25.000000,,2013-03-17 02:22:00,
2013-03-16 19:33:00,38.0,36.0,-100.00,South,188,0.0,6.0,94,0.06,,,0.47,9.000000,,2013-03-17 02:33:00,
2013-03-16 19:52:00,38.0,36.0,-100.00,South,188,0.0,6.0,94,0.06,,,0.47,9.000000,,2013-03-17 02:52:00,
2013-03-16 20:02:00,38.0,36.0,-100.00,South,188,0.0,6.0,94,0.06,,,0.47,9.000000,,2013-03-17 03:02:00,
2013-03-16 20:12:00,38.0,36.0,-100.00,South,188,0.0,6.0,94,0.06,,,0.47,9.000000,,2013-03-17 03:12:00,
2013-03-16 20:22:00,38.0,36.0,-100.00,South,188,0.0,6.0,94,0.06,,,0.47,9.000000,,2013-03-17 03:22:00,
2013-03-16 20:53:00,38.0,37.0,-100.00,SW,219,0.0,3.0,96,0.01,,,0.48,1.000000,,2013-03-17 03:53:00,
2013-03-16 21:03:00,38.0,37.0,-100.00,SW,219,0.0,3.0,96,0.01,,,0.48,1.000000,,2013-03-17 04:03:00,
2013-03-16 21:12:00,38.0,37.0,-100.00,SW,219,0.0,3.0,96,0.01,,,0.48,1.000000,,2013-03-17 04:12:00,
2013-03-16 21:23:00,38.0,37.0,-100.00,SW,219,0.0,3.0,96,0.01,,,0.48,1.000000,,2013-03-17 04:23:00,
2013-03-16 21:32:00,38.0,37.0,-100.00,SW,219,0.0,3.0,96,0.01,,,0.48,1.000000,,2013-03-17 04:32:00,
2013-03-16 21:53:00,37.0,36.0,-100.00,SW,218,1.0,6.0,96,0.03,,,0.48,0.000000,,2013-03-17 04:53:00,
2013-03-16 22:02:00,37.0,36.0,-100.00,SW,218,1.0,6.0,96,0.03,,,0.48,0.000000,,2013-03-17 05:02:00,
2013-03-16 22:12:00,37.0,36.0,-100.00,SW,218,1.0,6.0,96,0.03,,,0.48,0.000000,,2013-03-17 05:12:00,
2013-03-16 22:22:00,37.0,36.0,-100.00,SW,218,1.0,6.0,96,0.03,,,0.48,0.000000,,2013-03-17 05:22:00,
2013-03-16 22:32:00,37.0,36.0,-100.00,SW,218,1.0,6.0,96,0.03,,,0.48,0.000000,,2013-03-17 05:32:00,
2013-03-16 22:52:00,37.0,36.0,-100.00,SE,133,0.0,3.0,96,0.02,,,0.49,0.000000,,2013-03-17 05:52:00,
2013-03-16 23:02:00,37.0,36.0,-100.00,SE,133,0.0,3.0,96,0.02,,,0.49,0.000000,,2013-03-17 06:02:00,
2013-03-16 23:12:00,37.0,36.0,-100.00,SE,133,0.0,3.0,96,0.02,,,0.49,0.000000,,2013-03-17 06:12:00,
2013-03-16 23:22:00,37.0,36.0,-100.00,SE,133,0.0,3.0,96,0.02,,,0.49,0.000000,,2013-03-17 06:22:00,
2013-03-16 23:32:00,37.0,36.0,-100.00,SE,133,0.0,3.0,96,0.02,,,0.49,0.000000,,2013-03-17 06:32:00,
2013-03-16 23:52:00,37.0,36.0,-100.00,SE,144,0.0,3.0,96,0.01,,,0.50,0.000000,,2013-03-17 06:52:00,